createdAt,value
2018-08-11T00:00:54.135Z,70.56
2018-08-11T00:01:54.091Z,71.50
2018-08-11T00:02:54.073Z,72.34
2018-08-11T00:03:54.069Z,73.16
2018-08-11T00:04:54.057Z,73.09
2018-08-11T00:05:54.055Z,73.09
2018-08-11T00:06:54.053Z,73.97
2018-08-11T00:07:54.029Z,74.38
2018-08-11T00:08:54.016Z,75.12
2018-08-11T00:09:54.008Z,73.19
2018-08-11T00:10:54.004Z,71.73
2018-08-11T00:11:53.984Z,73.16
2018-08-11T00:12:53.967Z,72.04
2018-08-11T00:13:53.991Z,71.23
2018-08-11T00:14:53.941Z,69.54
2018-08-11T00:15:53.942Z,67.99
2018-08-11T00:16:53.934Z,67.85
2018-08-11T00:17:53.916Z,67.62
2018-08-11T00:18:53.894Z,67.62
2018-08-11T00:19:53.905Z,66.00
2018-08-11T00:20:53.936Z,66.61
2018-08-11T00:21:53.889Z,65.80
2018-08-11T00:22:53.865Z,65.90
2018-08-11T00:23:53.863Z,65.77
2018-08-11T00:24:53.872Z,65.87
2018-08-11T00:25:53.843Z,65.77
2018-08-11T00:26:53.836Z,65.56
2018-08-11T00:27:53.814Z,67.39
2018-08-11T00:28:53.856Z,66.91
2018-08-11T00:29:53.801Z,68.13
2018-08-11T00:30:53.795Z,67.76
2018-08-11T00:31:53.777Z,69.07
2018-08-11T00:32:53.791Z,69.78
2018-08-11T00:33:53.749Z,70.01
2018-08-11T00:34:53.725Z,69.64
2018-08-11T00:35:53.739Z,70.35
2018-08-11T00:36:53.706Z,71.00
2018-08-11T00:37:53.693Z,71.36
2018-08-11T00:38:53.713Z,72.28
2018-08-11T00:39:53.682Z,73.16
2018-08-11T00:40:53.678Z,75.19
2018-08-11T00:41:53.654Z,75.84
2018-08-11T00:42:53.646Z,76.45
2018-08-11T00:43:53.641Z,76.59
2018-08-11T00:44:53.617Z,77.26
2018-08-11T00:45:55.307Z,77.47
2018-08-11T00:46:53.604Z,76.99
2018-08-11T00:47:53.597Z,78.52
2018-08-11T00:48:53.688Z,78.96
2018-08-11T00:49:53.592Z,78.96
2018-08-11T00:50:53.587Z,79.61
2018-08-11T00:51:53.564Z,79.00
2018-08-11T00:52:53.645Z,78.69
2018-08-11T00:53:53.570Z,78.86
2018-08-11T00:54:53.532Z,79.41
2018-08-11T00:55:54.087Z,79.41
2018-08-11T00:56:53.495Z,79.30
2018-08-11T00:57:53.499Z,79.81
2018-08-11T00:58:53.491Z,80.56
2018-08-11T00:59:53.459Z,79.95
2018-08-11T01:00:53.463Z,80.46
2018-08-11T01:01:53.441Z,80.26
2018-08-11T01:02:53.435Z,80.36
2018-08-11T01:03:53.452Z,80.87
2018-08-11T01:04:53.447Z,80.87
2018-08-11T01:05:53.448Z,80.36
2018-08-11T01:06:53.380Z,80.87
2018-08-11T01:07:53.373Z,80.66
2018-08-11T01:08:53.368Z,81.31
2018-08-11T01:09:53.353Z,81.93
2018-08-11T01:10:53.415Z,81.76
2018-08-11T01:11:53.347Z,82.33
2018-08-11T01:12:53.337Z,82.17
2018-08-11T01:13:53.339Z,82.57
2018-08-11T01:14:53.304Z,81.25
2018-08-11T01:15:53.282Z,82.57
2018-08-11T01:16:53.287Z,82.57
2018-08-11T01:17:53.265Z,82.57
2018-08-11T01:18:53.246Z,82.78
2018-08-11T01:19:53.236Z,82.37
2018-08-11T01:20:53.236Z,81.82
2018-08-11T01:21:53.234Z,78.86
2018-08-11T01:22:53.209Z,77.26
2018-08-11T01:23:53.201Z,75.70
2018-08-11T01:24:53.197Z,74.65
2018-08-11T01:25:53.180Z,74.41
2018-08-11T01:26:53.191Z,73.90
2018-08-11T01:27:53.156Z,74.31
2018-08-11T01:28:53.170Z,74.41
2018-08-11T01:29:53.153Z,73.19
2018-08-11T01:30:53.115Z,73.26
2018-08-11T01:31:53.135Z,72.65
2018-08-11T01:32:53.099Z,72.75
2018-08-11T01:33:53.090Z,73.06
2018-08-11T01:34:53.085Z,72.96
2018-08-11T01:35:53.094Z,72.01
2018-08-11T01:36:53.076Z,71.64
2018-08-11T01:37:53.045Z,71.20
2018-08-11T01:38:53.059Z,70.69
2018-08-11T01:39:53.024Z,70.45
2018-08-11T01:40:53.061Z,70.65
2018-08-11T01:41:53.009Z,69.95
2018-08-11T01:42:53.005Z,70.15
2018-08-11T01:43:52.982Z,70.35
2018-08-11T01:44:52.972Z,70.35
2018-08-11T01:45:52.967Z,71.06
2018-08-11T01:46:52.967Z,70.69
2018-08-11T01:47:52.953Z,70.76
2018-08-11T01:48:52.928Z,71.91
2018-08-11T01:49:52.917Z,71.00
2018-08-11T01:50:52.903Z,70.79
2018-08-11T01:51:52.895Z,70.76
2018-08-11T01:52:52.913Z,71.00
2018-08-11T01:53:52.876Z,71.40
2018-08-11T01:54:52.863Z,70.79
2018-08-11T01:55:52.857Z,70.69
2018-08-11T01:56:52.849Z,71.80
2018-08-11T01:57:52.843Z,71.09
2018-08-11T01:58:52.840Z,71.20
2018-08-11T01:59:52.805Z,70.89
2018-08-11T02:00:52.803Z,71.50
2018-08-11T02:01:52.792Z,71.30
2018-08-11T02:02:52.791Z,71.00
2018-08-11T02:03:52.763Z,71.20
2018-08-11T02:04:52.748Z,71.40
2018-08-11T02:05:52.741Z,70.89
2018-08-11T02:06:52.742Z,71.40
2018-08-11T02:07:52.735Z,70.79
2018-08-11T02:08:52.708Z,70.69
2018-08-11T02:09:52.703Z,70.48
2018-08-11T02:10:52.682Z,71.50
2018-08-11T02:11:52.674Z,70.79
2018-08-11T02:12:55.066Z,70.69
2018-08-11T02:13:52.665Z,71.40
2018-08-11T02:14:52.643Z,71.50
2018-08-11T02:15:52.669Z,72.01
2018-08-11T02:16:52.618Z,72.34
2018-08-11T02:17:52.649Z,72.04
2018-08-11T02:18:52.618Z,72.17
2018-08-11T02:19:52.599Z,72.28
2018-08-11T02:20:52.611Z,72.69
2018-08-11T02:21:52.570Z,73.09
2018-08-11T02:22:52.589Z,72.25
2018-08-11T02:23:52.548Z,71.73
2018-08-11T02:24:52.614Z,71.53
2018-08-11T02:25:52.534Z,71.64
2018-08-11T02:26:52.512Z,71.53
2018-08-11T02:27:52.529Z,71.53
2018-08-11T02:28:52.489Z,71.73
2018-08-11T02:29:52.478Z,72.14
2018-08-11T02:30:52.496Z,71.13
2018-08-11T02:31:52.452Z,72.14
2018-08-11T02:32:52.456Z,72.34
2018-08-11T02:33:52.436Z,72.96
2018-08-11T02:34:52.418Z,72.99
2018-08-11T02:35:52.415Z,74.10
2018-08-11T02:36:52.409Z,73.09
2018-08-11T02:37:52.410Z,74.14
2018-08-11T02:38:52.453Z,73.83
2018-08-11T02:39:52.395Z,74.38
2018-08-11T02:40:52.375Z,74.34
2018-08-11T02:41:52.378Z,74.18
2018-08-11T02:42:52.352Z,74.58
2018-08-11T02:43:52.325Z,74.82
2018-08-11T02:44:52.334Z,74.92
2018-08-11T02:45:52.313Z,74.38
2018-08-11T02:46:52.286Z,74.68
2018-08-11T02:47:52.300Z,74.79
2018-08-11T02:48:52.272Z,74.58
2018-08-11T02:49:52.270Z,74.28
2018-08-11T02:50:52.271Z,74.28
2018-08-11T02:51:52.242Z,74.18
2018-08-11T02:52:52.257Z,73.57
2018-08-11T02:53:52.212Z,73.97
2018-08-11T02:54:52.198Z,73.87
2018-08-11T02:55:52.201Z,74.07
2018-08-11T02:56:52.191Z,74.04
2018-08-11T02:57:52.179Z,73.63
2018-08-11T02:58:52.178Z,74.24
2018-08-11T02:59:52.157Z,74.07
2018-08-11T03:00:52.138Z,74.68
2018-08-11T03:01:52.128Z,74.18
2018-08-11T03:02:52.120Z,74.34
2018-08-11T03:03:52.125Z,73.63
2018-08-11T03:04:52.129Z,72.92
2018-08-11T03:05:52.093Z,72.92
2018-08-11T03:06:52.079Z,73.83
2018-08-11T03:07:52.075Z,74.07
2018-08-11T03:08:52.079Z,74.18
2018-08-11T03:09:52.052Z,74.28
2018-08-11T03:10:52.043Z,74.48
2018-08-11T03:11:52.034Z,74.28
2018-08-11T03:12:52.022Z,73.97
2018-08-11T03:13:52.046Z,74.38
2018-08-11T03:14:52.021Z,74.28
2018-08-11T03:15:51.987Z,74.18
2018-08-11T03:16:51.970Z,74.07
2018-08-11T03:17:51.967Z,74.18
2018-08-11T03:18:51.968Z,73.97
2018-08-11T03:19:51.949Z,72.96
2018-08-11T03:20:51.939Z,74.18
2018-08-11T03:21:51.921Z,74.07
2018-08-11T03:22:51.921Z,74.18
2018-08-11T03:23:55.036Z,74.01
2018-08-11T03:24:51.884Z,74.18
2018-08-11T03:25:51.881Z,74.07
2018-08-11T03:26:51.869Z,73.97
2018-08-11T03:27:51.858Z,74.68
2018-08-11T03:28:51.868Z,74.58
2018-08-11T03:29:51.844Z,74.62
2018-08-11T03:30:51.850Z,74.48
2018-08-11T03:31:51.802Z,74.82
2018-08-11T03:32:51.797Z,74.52
2018-08-11T03:33:51.792Z,74.82
2018-08-11T03:34:52.931Z,74.82
2018-08-11T03:35:51.774Z,75.33
2018-08-11T03:36:51.768Z,74.72
2018-08-11T03:37:51.759Z,74.72
2018-08-11T03:38:51.730Z,75.06
2018-08-11T03:39:51.747Z,76.07
2018-08-11T03:40:51.722Z,76.38
2018-08-11T03:41:51.713Z,77.29
2018-08-11T03:42:51.700Z,76.82
2018-08-11T03:43:51.703Z,77.78
2018-08-11T03:44:51.726Z,78.69
2018-08-11T03:45:51.677Z,78.63
2018-08-11T03:46:51.652Z,78.93
2018-08-11T03:47:51.634Z,79.54
2018-08-11T03:48:51.653Z,79.68
2018-08-11T03:49:51.771Z,79.99
2018-08-11T03:50:51.605Z,80.33
2018-08-11T03:51:51.610Z,81.15
2018-08-11T03:52:51.585Z,82.10
2018-08-11T03:53:51.607Z,82.21
2018-08-11T03:54:51.581Z,82.45
2018-08-11T03:55:51.558Z,83.16
2018-08-11T03:56:51.555Z,84.08
2018-08-11T03:57:51.571Z,84.33
2018-08-11T03:58:51.532Z,85.28
2018-08-11T03:59:51.545Z,85.18
2018-08-11T04:00:51.507Z,86.00
2018-08-11T04:01:51.489Z,84.57
2018-08-11T04:02:51.505Z,85.79
2018-08-11T04:03:51.464Z,86.10
2018-08-11T04:04:51.483Z,85.89
2018-08-11T04:05:51.449Z,85.28
2018-08-11T04:06:51.430Z,85.59
2018-08-11T04:07:51.427Z,86.20
2018-08-11T04:08:51.417Z,85.96
2018-08-11T04:09:51.414Z,85.27
2018-08-11T04:10:51.400Z,83.33
2018-08-11T04:11:51.402Z,83.70
2018-08-11T04:12:51.363Z,84.11
2018-08-11T04:13:51.361Z,82.57
2018-08-11T04:14:53.295Z,83.09
2018-08-11T04:15:51.339Z,82.47
2018-08-11T04:16:51.332Z,82.17
2018-08-11T04:17:51.326Z,82.37
2018-08-11T04:18:51.302Z,83.09
2018-08-11T04:19:51.337Z,82.78
2018-08-11T04:20:51.285Z,82.88
2018-08-11T04:21:51.282Z,84.11
2018-08-11T04:22:51.268Z,84.04
2018-08-11T04:23:51.245Z,84.45
2018-08-11T04:24:51.238Z,84.75
2018-08-11T04:25:51.250Z,85.27
2018-08-11T04:26:51.227Z,85.27
2018-08-11T04:27:51.223Z,85.06
2018-08-11T04:28:51.201Z,85.27
2018-08-11T04:29:51.211Z,84.34
2018-08-11T04:30:51.204Z,83.18
2018-08-11T04:31:51.164Z,83.29
2018-08-11T04:32:51.158Z,83.90
2018-08-11T04:33:51.141Z,84.37
2018-08-11T04:34:51.136Z,80.05
2018-08-11T04:35:51.152Z,79.20
2018-08-11T04:36:51.112Z,77.53
2018-08-11T04:37:51.105Z,77.40
2018-08-11T04:38:51.092Z,77.06
2018-08-11T04:39:51.117Z,76.14
2018-08-11T04:40:52.068Z,75.33
2018-08-11T04:41:51.091Z,74.88
2018-08-11T04:42:51.113Z,75.80
2018-08-11T04:43:51.070Z,74.88
2018-08-11T04:44:51.060Z,75.49
2018-08-11T04:45:51.039Z,74.88
2018-08-11T04:46:51.033Z,74.14
2018-08-11T04:47:51.018Z,74.24
2018-08-11T04:48:51.004Z,73.74
2018-08-11T04:49:50.979Z,73.22
2018-08-11T04:50:50.978Z,72.99
2018-08-11T04:51:50.950Z,72.99
2018-08-11T04:52:50.959Z,72.58
2018-08-11T04:53:50.942Z,72.99
2018-08-11T04:54:50.949Z,72.04
2018-08-11T04:55:52.558Z,71.73
2018-08-11T04:56:50.901Z,71.73
2018-08-11T04:57:50.895Z,72.45
2018-08-11T04:58:50.916Z,72.75
2018-08-11T04:59:50.885Z,71.84
2018-08-11T05:00:50.922Z,71.84
2018-08-11T05:01:50.862Z,72.14
2018-08-11T05:02:50.849Z,71.53
2018-08-11T05:03:50.847Z,72.25
2018-08-11T05:04:50.809Z,71.73
2018-08-11T05:05:50.820Z,72.45
2018-08-11T05:06:50.821Z,72.01
2018-08-11T05:07:50.794Z,71.50
2018-08-11T05:08:50.761Z,71.70
2018-08-11T05:09:50.758Z,70.89
2018-08-11T05:10:50.781Z,71.00
2018-08-11T05:11:50.733Z,70.39
2018-08-11T05:12:50.727Z,70.05
2018-08-11T05:13:50.715Z,70.15
2018-08-11T05:14:50.697Z,69.61
2018-08-11T05:15:50.709Z,69.20
2018-08-11T05:16:50.675Z,69.98
2018-08-11T05:17:50.667Z,67.85
2018-08-11T05:18:50.664Z,68.33
2018-08-11T05:19:50.657Z,68.43
2018-08-11T05:20:50.678Z,67.52
2018-08-11T05:21:50.626Z,67.11
2018-08-11T05:22:50.650Z,66.78
2018-08-11T05:23:50.607Z,67.32
2018-08-11T05:24:50.622Z,66.61
2018-08-11T05:25:53.517Z,67.01
2018-08-11T05:26:50.569Z,66.94
2018-08-11T05:27:50.567Z,67.01
2018-08-11T05:28:50.548Z,66.61
2018-08-11T05:29:50.545Z,66.41
2018-08-11T05:30:50.535Z,66.61
2018-08-11T05:31:50.539Z,66.88
2018-08-11T05:32:50.508Z,66.81
2018-08-11T05:33:50.498Z,66.50
2018-08-11T05:34:50.543Z,65.80
2018-08-11T05:35:50.498Z,66.98
2018-08-11T05:36:50.475Z,67.08
2018-08-11T05:37:50.476Z,67.15
2018-08-11T05:38:50.437Z,66.75
2018-08-11T05:39:50.440Z,66.24
2018-08-11T05:40:50.442Z,66.17
2018-08-11T05:41:50.426Z,65.73
2018-08-11T05:42:50.397Z,65.94
2018-08-11T05:43:50.383Z,65.94
2018-08-11T05:44:50.387Z,65.61
2018-08-11T05:45:50.383Z,65.17
2018-08-11T05:46:50.393Z,64.03
2018-08-11T05:47:50.349Z,63.65
2018-08-11T05:48:50.396Z,64.06
2018-08-11T05:49:50.355Z,64.26
2018-08-11T05:50:50.331Z,65.78
2018-08-11T05:51:50.342Z,64.53
2018-08-11T05:52:50.305Z,64.73
2018-08-11T05:53:50.314Z,63.93
2018-08-11T05:54:50.282Z,63.52
2018-08-11T05:55:50.275Z,62.62
2018-08-11T05:56:50.270Z,63.70
2018-08-11T05:57:50.265Z,62.59
2018-08-11T05:58:50.229Z,62.08
2018-08-11T05:59:50.244Z,62.48
2018-08-11T06:00:50.202Z,62.08
2018-08-11T06:01:50.208Z,61.68
2018-08-11T06:02:50.185Z,61.55
2018-08-11T06:03:50.210Z,60.10
2018-08-11T06:04:50.184Z,59.90
2018-08-11T06:05:50.148Z,60.88
2018-08-11T06:06:50.208Z,60.28
2018-08-11T06:07:50.149Z,59.55
2018-08-11T06:08:50.113Z,59.64
2018-08-11T06:09:50.125Z,57.55
2018-08-11T06:10:50.110Z,56.06
2018-08-11T06:11:50.129Z,54.58
2018-08-11T06:12:50.074Z,54.22
2018-08-11T06:13:50.062Z,51.07
2018-08-11T06:14:50.120Z,50.89
2018-08-11T06:15:50.079Z,48.87
2018-08-11T06:16:50.151Z,48.82
2018-08-11T06:17:50.036Z,47.28
2018-08-11T06:18:50.008Z,46.78
2018-08-11T06:19:50.044Z,47.22
2018-08-11T06:20:49.998Z,47.42
2018-08-11T06:21:51.427Z,45.51
2018-08-11T06:22:49.965Z,46.61
2018-08-11T06:23:50.638Z,47.60
2018-08-11T06:24:49.950Z,47.22
2018-08-11T06:25:50.003Z,47.42
2018-08-11T06:26:50.728Z,47.75
2018-08-11T06:27:49.908Z,50.17
2018-08-11T06:28:49.915Z,47.49
2018-08-11T06:29:49.910Z,48.75
2018-08-11T06:30:49.904Z,47.80
2018-08-11T06:31:50.004Z,45.81
2018-08-11T06:32:49.862Z,46.41
2018-08-11T06:33:49.850Z,46.53
2018-08-11T06:34:49.920Z,47.13
2018-08-11T06:35:49.838Z,48.05
2018-08-11T06:36:50.014Z,46.73
2018-08-11T06:37:49.820Z,46.83
2018-08-11T06:38:49.795Z,46.58
2018-08-11T06:39:49.807Z,46.31
2018-08-11T06:40:49.813Z,44.36
2018-08-11T06:41:49.765Z,44.16
2018-08-11T06:42:49.812Z,43.24
2018-08-11T06:43:49.737Z,43.08
2018-08-11T06:44:49.735Z,42.89
2018-08-11T06:45:49.716Z,42.49
2018-08-11T06:46:49.854Z,42.05
2018-08-11T06:47:49.709Z,40.90
2018-08-11T06:48:49.702Z,41.16
2018-08-11T06:49:49.673Z,40.84
2018-08-11T06:50:49.664Z,40.44
2018-08-11T06:51:49.649Z,40.92
2018-08-11T06:52:49.654Z,39.36
2018-08-11T06:53:49.629Z,40.33
2018-08-11T06:54:49.660Z,37.89
2018-08-11T06:55:49.614Z,37.36
2018-08-11T06:56:49.622Z,36.85
2018-08-11T06:57:49.610Z,37.15
2018-08-11T06:58:49.580Z,36.87
2018-08-11T06:59:49.566Z,37.72
2018-08-11T07:00:49.558Z,37.80
2018-08-11T07:01:49.607Z,36.48
2018-08-11T07:02:51.925Z,37.01
2018-08-11T07:03:49.522Z,38.02
2018-08-11T07:04:49.508Z,38.31
2018-08-11T07:05:49.504Z,38.56
2018-08-11T07:06:49.549Z,41.09
2018-08-11T07:07:49.551Z,42.99
2018-08-11T07:08:49.474Z,43.90
2018-08-11T07:09:49.458Z,45.03
2018-08-11T07:10:49.448Z,43.08
2018-08-11T07:11:49.438Z,44.80
2018-08-11T07:12:49.452Z,47.03
2018-08-11T07:13:49.463Z,45.96
2018-08-11T07:14:49.409Z,47.75
2018-08-11T07:15:49.399Z,46.96
2018-08-11T07:16:49.386Z,49.00
2018-08-11T07:17:49.393Z,47.33
2018-08-11T07:18:49.361Z,49.42
2018-08-11T07:19:49.405Z,47.85
2018-08-11T07:20:49.346Z,50.65
2018-08-11T07:21:49.334Z,49.35
2018-08-11T07:22:49.335Z,49.65
2018-08-11T07:23:49.316Z,48.60
2018-08-11T07:24:49.310Z,47.60
2018-08-11T07:25:49.351Z,48.78
2018-08-11T07:26:49.280Z,51.15
2018-08-11T07:27:49.405Z,48.01
2018-08-11T07:28:49.272Z,45.78
2018-08-11T07:29:49.250Z,48.76
2018-08-11T07:30:49.252Z,43.44
2018-08-11T07:31:49.229Z,43.56
2018-08-11T07:32:49.245Z,40.90
2018-08-11T07:33:49.227Z,42.75
2018-08-11T07:34:49.196Z,43.05
2018-08-11T07:35:49.243Z,44.79
2018-08-11T07:36:49.347Z,43.68
2018-08-11T07:37:49.168Z,43.06
2018-08-11T07:38:49.225Z,43.08
2018-08-11T11:36:32.344Z,28.86
2018-08-11T11:37:15.065Z,30.43
2018-08-11T11:38:13.976Z,31.10
2018-08-11T11:39:13.968Z,28.05
2018-08-11T11:40:13.955Z,34.11
2018-08-11T11:41:13.945Z,30.93
2018-08-11T11:42:13.960Z,29.53
2018-08-11T11:43:13.935Z,32.48
2018-08-11T11:44:13.926Z,29.63
2018-08-11T11:45:13.937Z,29.43
2018-08-11T11:46:13.899Z,29.62
2018-08-11T11:47:13.892Z,28.91
2018-08-11T11:48:13.903Z,27.92
2018-08-11T11:49:13.902Z,27.74
2018-08-11T11:50:13.966Z,28.15
2018-08-11T11:51:13.878Z,28.75
2018-08-11T11:52:13.916Z,29.52
2018-08-11T11:53:13.994Z,29.10
2018-08-11T11:54:13.860Z,28.70
2018-08-11T11:55:13.819Z,28.99
2018-08-11T11:56:13.814Z,29.96
2018-08-11T11:57:13.821Z,29.06
2018-08-11T11:58:45.336Z,30.17
2018-08-11T11:59:13.781Z,29.59
2018-08-11T12:00:14.413Z,31.12
2018-08-11T12:01:13.761Z,28.67
2018-08-11T12:02:13.758Z,28.25
2018-08-11T12:03:13.756Z,30.17
2018-08-11T12:04:13.737Z,30.21
2018-08-11T12:05:13.723Z,31.85
2018-08-11T12:06:13.715Z,28.99
2018-08-11T12:07:13.711Z,31.63
2018-08-11T12:08:13.717Z,30.60
2018-08-11T12:09:13.686Z,29.90
2018-08-11T12:10:13.678Z,28.81
2018-08-11T12:11:32.715Z,29.18
2018-08-11T12:12:29.694Z,26.65
2018-08-11T12:13:29.702Z,27.14
2018-08-11T12:14:29.679Z,27.81
2018-08-11T12:15:29.665Z,26.80
2018-08-11T12:16:29.658Z,29.97
2018-08-11T12:17:29.660Z,29.71
2018-08-11T12:18:30.300Z,33.00
2018-08-11T12:19:29.673Z,30.98
2018-08-11T12:20:29.636Z,35.86
2018-08-11T12:21:29.639Z,36.06
2018-08-11T12:22:29.604Z,32.47
2018-08-11T12:23:48.939Z,31.79
2018-08-11T12:24:29.584Z,35.76
2018-08-11T12:25:31.576Z,34.38
2018-08-11T12:26:29.569Z,32.82
2018-08-11T12:27:29.575Z,32.48
2018-08-11T12:28:29.567Z,30.56
2018-08-11T12:29:29.536Z,30.30
2018-08-11T12:30:29.556Z,29.31
2018-08-11T12:31:29.528Z,28.72
2018-08-11T12:32:29.513Z,27.44
2018-08-11T12:33:29.529Z,29.48
2018-08-11T12:34:29.641Z,28.20
2018-08-11T12:35:29.472Z,27.78
2018-08-11T12:36:29.582Z,27.67
2018-08-11T12:37:29.465Z,27.17
2018-08-11T12:38:31.789Z,24.33
2018-08-11T12:39:29.460Z,27.17
2018-08-11T12:40:29.427Z,26.09
2018-08-11T12:41:29.431Z,26.48
2018-08-11T12:42:29.410Z,26.71
2018-08-11T12:43:29.487Z,27.74
2018-08-11T12:44:29.419Z,28.09
2018-08-11T12:45:29.438Z,27.75
2018-08-11T12:46:29.369Z,28.93
2018-08-11T12:47:29.376Z,30.62
2018-08-11T12:48:29.379Z,28.61
2018-08-11T12:49:29.367Z,27.40
2018-08-11T12:50:29.335Z,27.24
2018-08-11T12:51:29.341Z,28.91
2018-08-11T12:52:29.330Z,27.42
2018-08-11T12:53:30.305Z,28.86
2018-08-11T12:54:29.293Z,26.81
2018-08-11T12:55:29.374Z,28.96
2018-08-11T12:56:29.380Z,28.88
2018-08-11T12:57:29.293Z,29.75
2018-08-11T12:58:29.301Z,28.20
2018-08-11T12:59:29.244Z,29.18
2018-08-11T13:00:29.251Z,28.93
2018-08-11T13:01:29.283Z,29.03
2018-08-11T13:02:29.227Z,30.85
2018-08-11T13:03:29.240Z,30.43
2018-08-11T13:04:29.234Z,31.72
2018-08-11T13:05:29.263Z,30.78
2018-08-11T13:06:29.176Z,34.30
2018-08-11T13:07:29.175Z,33.33
2018-08-11T13:08:29.187Z,35.42
2018-08-11T13:09:29.148Z,34.73
2018-08-11T13:10:29.150Z,35.75
2018-08-11T13:11:29.141Z,36.74
2018-08-11T13:12:29.144Z,37.26
2018-08-11T13:13:29.130Z,37.15
2018-08-11T13:14:29.111Z,37.26
2018-08-11T13:15:29.095Z,38.74
2018-08-11T13:16:29.093Z,36.18
2018-08-11T13:17:29.089Z,36.99
2018-08-11T13:18:29.091Z,36.99
2018-08-11T13:19:29.063Z,36.60
2018-08-11T13:20:29.066Z,37.69
2018-08-11T13:21:29.031Z,37.96
2018-08-11T13:22:29.015Z,36.77
2018-08-11T13:23:29.656Z,35.37
2018-08-11T13:24:28.999Z,35.17
2018-08-11T13:25:29.014Z,36.26
2018-08-11T13:26:28.980Z,36.15
2018-08-11T13:27:28.986Z,37.43
2018-08-11T13:28:29.004Z,35.55
2018-08-11T13:29:28.941Z,37.32
2018-08-11T13:30:28.942Z,36.82
2018-08-11T13:31:28.944Z,37.00
2018-08-11T13:32:28.967Z,35.16
2018-08-11T13:33:28.916Z,35.65
2018-08-11T13:34:28.941Z,36.18
2018-08-11T13:35:28.885Z,36.50
2018-08-11T13:36:28.899Z,38.20
2018-08-11T13:37:28.873Z,39.31
2018-08-11T13:38:28.885Z,37.03
2018-08-11T13:39:28.863Z,37.72
2018-08-11T13:40:28.843Z,36.65
2018-08-11T13:41:28.841Z,37.64
2018-08-11T13:42:28.806Z,36.63
2018-08-11T13:43:28.815Z,37.11
2018-08-11T13:44:28.819Z,36.50
2018-08-11T13:45:40.155Z,34.81
2018-08-11T13:46:28.777Z,36.00
2018-08-11T13:47:28.757Z,36.00
2018-08-11T13:48:28.753Z,35.41
2018-08-11T13:49:28.755Z,35.22
2018-08-11T13:50:28.777Z,35.52
2018-08-11T13:51:28.732Z,35.03
2018-08-11T13:52:28.698Z,34.92
2018-08-11T13:53:28.697Z,36.63
2018-08-11T13:54:28.718Z,36.83
2018-08-11T13:55:28.699Z,35.83
2018-08-11T13:56:28.670Z,35.14
2018-08-11T13:57:28.664Z,36.25
2018-08-11T13:58:28.661Z,35.46
2018-08-11T13:59:28.637Z,36.36
2018-08-11T14:00:28.658Z,35.95
2018-08-11T14:01:28.616Z,35.57
2018-08-11T14:02:28.592Z,35.57
2018-08-11T14:03:28.587Z,36.36
2018-08-11T14:04:28.598Z,36.85
2018-08-11T14:05:28.583Z,36.05
2018-08-11T14:06:28.601Z,36.35
2018-08-11T14:07:28.665Z,36.23
2018-08-11T14:08:28.563Z,34.74
2018-08-11T14:09:31.940Z,36.13
2018-08-11T14:10:28.513Z,36.81
2018-08-11T14:11:28.523Z,36.00
2018-08-11T14:12:28.513Z,35.50
2018-08-11T14:13:28.496Z,36.08
2018-08-11T14:14:28.479Z,36.08
2018-08-11T14:15:28.464Z,35.19
2018-08-11T14:16:28.478Z,37.87
2018-08-11T14:17:28.457Z,37.37
2018-08-11T14:18:28.419Z,35.29
2018-08-11T14:19:28.460Z,36.76
2018-08-11T14:20:28.490Z,37.05
2018-08-11T14:21:28.387Z,36.74
2018-08-11T14:22:28.398Z,35.07
2018-08-11T14:23:28.396Z,35.57
2018-08-11T14:24:28.372Z,34.08
2018-08-11T14:25:28.343Z,35.47
2018-08-11T14:26:28.336Z,33.77
2018-08-11T14:27:28.329Z,34.46
2018-08-11T14:28:28.316Z,32.58
2018-08-11T14:29:28.350Z,34.46
2018-08-11T14:30:28.314Z,35.06
2018-08-11T14:31:28.305Z,35.07
2018-08-11T14:32:28.334Z,34.38
2018-08-11T14:33:28.261Z,33.29
2018-08-11T14:34:28.365Z,34.12
2018-08-11T14:35:30.589Z,35.52
2018-08-11T14:36:28.254Z,35.44
2018-08-11T14:37:28.220Z,35.66
2018-08-11T14:38:28.247Z,35.95
2018-08-11T14:39:28.214Z,35.47
2018-08-11T14:40:28.211Z,36.36
2018-08-11T14:41:28.172Z,35.67
2018-08-11T14:42:28.162Z,37.16
2018-08-11T14:43:28.158Z,36.87
2018-08-11T14:44:28.238Z,37.26
2018-08-11T14:45:28.164Z,37.06
2018-08-11T14:46:28.125Z,36.87
2018-08-11T14:47:28.126Z,36.77
2018-08-11T14:48:28.142Z,36.66
2018-08-11T14:49:28.086Z,36.58
2018-08-11T14:50:28.130Z,36.68
2018-08-11T14:51:28.113Z,36.88
2018-08-11T14:52:28.060Z,37.18
2018-08-11T14:53:28.044Z,37.08
2018-08-11T14:54:28.108Z,36.29
2018-08-11T14:55:28.034Z,37.08
2018-08-11T14:56:28.012Z,37.38
2018-08-11T14:57:28.000Z,38.56
2018-08-11T14:58:27.990Z,37.74
2018-08-11T14:59:27.999Z,36.77
2018-08-11T15:00:28.021Z,36.19
2018-08-11T15:01:27.961Z,36.29
2018-08-11T15:02:27.949Z,37.18
2018-08-11T15:03:27.935Z,36.29
2018-08-11T15:04:27.926Z,37.06
2018-08-11T15:05:27.934Z,36.66
2018-08-11T15:06:27.941Z,37.16
2018-08-11T15:07:27.909Z,36.75
2018-08-11T15:08:27.881Z,35.77
2018-08-11T15:09:27.872Z,36.25
2018-08-11T15:10:27.884Z,35.95
2018-08-11T15:11:27.876Z,36.55
2018-08-11T15:12:27.841Z,36.63
2018-08-11T15:13:27.833Z,35.66
2018-08-11T15:14:27.820Z,37.23
2018-08-11T15:15:27.823Z,36.73
2018-08-11T15:16:27.801Z,36.65
2018-08-11T15:17:27.824Z,35.36
2018-08-11T15:18:27.780Z,35.95
2018-08-11T15:19:27.767Z,36.15
2018-08-11T15:20:27.768Z,36.65
2018-08-11T15:21:27.744Z,36.63
2018-08-11T15:22:27.733Z,35.55
2018-08-11T15:23:27.743Z,36.65
2018-08-11T15:24:27.744Z,36.53
2018-08-11T15:25:27.735Z,35.75
2018-08-11T15:26:27.710Z,36.53
2018-08-11T15:27:27.680Z,35.24
2018-08-11T15:28:27.694Z,36.33
2018-08-11T15:29:27.675Z,36.45
2018-08-11T15:30:27.701Z,35.83
2018-08-11T15:31:27.647Z,35.74
2018-08-11T15:32:27.650Z,35.26
2018-08-11T15:33:27.718Z,35.46
2018-08-11T15:34:27.617Z,34.98
2018-08-11T15:35:27.642Z,35.66
2018-08-11T15:36:27.626Z,37.96
2018-08-11T15:37:27.589Z,36.47
2018-08-11T15:38:27.584Z,36.55
2018-08-11T15:39:27.576Z,35.27
2018-08-11T15:40:27.553Z,36.57
2018-08-11T15:41:27.543Z,38.26
2018-08-11T15:42:27.538Z,36.77
2018-08-11T15:43:27.531Z,37.36
2018-08-11T15:44:27.525Z,35.97
2018-08-11T15:45:27.485Z,36.27
2018-08-11T15:46:27.489Z,36.27
2018-08-11T15:47:27.472Z,35.75
2018-08-11T15:48:27.473Z,36.05
2018-08-11T15:49:27.469Z,35.16
2018-08-11T15:50:27.454Z,37.82
2018-08-11T15:51:27.437Z,37.62
2018-08-11T15:52:27.439Z,37.03
2018-08-11T15:53:27.405Z,37.82
2018-08-11T15:54:27.415Z,36.63
2018-08-11T15:55:27.390Z,37.43
2018-08-11T15:56:27.399Z,37.03
2018-08-11T15:57:27.372Z,38.52
2018-08-11T15:58:27.379Z,36.93
2018-08-11T15:59:27.367Z,36.93
2018-08-11T16:00:27.324Z,36.53
2018-08-11T16:01:27.351Z,37.92
2018-08-11T16:02:27.304Z,35.06
2018-08-11T16:03:27.294Z,36.85
2018-08-11T16:04:27.301Z,37.06
2018-08-11T16:05:27.315Z,36.57
2018-08-11T16:06:27.301Z,35.77
2018-08-11T16:07:27.252Z,36.57
2018-08-11T16:08:27.241Z,36.66
2018-08-11T16:09:27.272Z,37.16
2018-08-11T16:10:27.219Z,36.87
2018-08-11T16:11:27.259Z,36.36
2018-08-11T16:12:27.202Z,36.55
2018-08-11T16:13:27.188Z,37.84
2018-08-11T16:14:27.179Z,37.04
2018-08-11T16:15:27.166Z,36.55
2018-08-11T16:16:27.168Z,38.54
2018-08-11T16:17:27.157Z,37.56
2018-08-11T16:18:27.169Z,38.06
2018-08-11T16:19:27.168Z,36.77
2018-08-11T16:20:27.118Z,39.54
2018-08-11T16:21:27.166Z,37.06
2018-08-11T16:22:27.091Z,35.97
2018-08-11T16:23:27.080Z,36.58
2018-08-11T16:24:27.096Z,37.08
2018-08-11T16:25:27.092Z,35.79
2018-08-11T16:26:27.049Z,37.58
2018-08-11T16:27:27.657Z,36.88
2018-08-11T16:28:27.026Z,36.19
2018-08-11T16:29:27.090Z,36.58
2018-08-11T16:30:27.045Z,37.98
2018-08-11T16:31:26.993Z,36.78
2018-08-11T16:32:30.633Z,36.40
2018-08-11T16:33:26.982Z,37.49
2018-08-11T16:34:26.967Z,36.40
2018-08-11T16:35:26.961Z,38.79
2018-08-11T16:36:26.956Z,39.48
2018-08-11T16:37:29.041Z,36.22
2018-08-11T16:38:26.940Z,36.70
2018-08-11T16:39:27.002Z,36.40
2018-08-11T16:40:26.913Z,36.21
2018-08-11T16:41:26.938Z,35.89
2018-08-11T16:42:26.910Z,36.38
2018-08-11T16:43:26.882Z,35.39
2018-08-11T16:44:26.862Z,36.29
2018-08-11T16:45:26.873Z,35.97
2018-08-11T16:46:26.885Z,34.80
2018-08-11T16:47:26.880Z,35.59
2018-08-11T16:48:26.827Z,36.07
2018-08-11T16:49:26.821Z,36.66